Terminal Aerodrome Forecast
Issued by NWS Sioux Falls, SD

Home | Current Version | Previous Version | Text Only | Print | Product List | Glossary On
Versions: 1 2 3 4 5 6 7 8 9 10 11 12 13 14
000
FTUS43 KFSD 181055 AAA
TAFFSD
TAF AMD
KFSD 181055Z 1811/1906 36009KT P6SM OVC012
     FM181400 VRB03KT P6SM OVC015
     FM181800 16008KT P6SM SCT025=

USA.gov is the U.S. government's official web portal to all federal, state and local government web resources and services.